Airport View

Enter ICAO identifier to see the current METAR for that AWOS.

KFNL for example

KGGW 300153Z AUTO 07010KT 10SM CLR 28/08 A3013

30 Jul 2014 02:56

Frequency: 135.175

Phone: 406-228-8294

Other Area AWOS: KOLF - KJDN - KPO1 - CWKO

TAF KGGW 292320Z 3000/3024 08011KT P6SM SKC FM300700 10004KT P6SM SKC